createdAt,value
2023-03-19T00:00:23.289Z,1004.67
2023-03-19T00:01:23.293Z,1004.65
2023-03-19T00:02:23.407Z,1004.67
2023-03-19T00:03:23.348Z,1004.69
2023-03-19T00:04:23.269Z,1004.70
2023-03-19T00:05:23.273Z,1004.72
2023-03-19T00:06:23.263Z,1004.71
2023-03-19T00:07:23.257Z,1004.71
2023-03-19T00:08:23.244Z,1004.71
2023-03-19T00:09:23.240Z,1004.78
2023-03-19T00:10:23.241Z,1004.73
2023-03-19T00:11:23.231Z,1004.72
2023-03-19T00:12:23.229Z,1004.73
2023-03-19T00:13:23.222Z,1004.71
2023-03-19T00:14:23.217Z,1004.74
2023-03-19T00:15:23.209Z,1004.73
2023-03-19T00:16:23.218Z,1004.71
2023-03-19T00:17:23.206Z,1004.69
2023-03-19T00:18:23.189Z,1004.67
2023-03-19T00:19:23.201Z,1004.69
2023-03-19T00:20:23.184Z,1004.69
2023-03-19T00:21:25.877Z,1004.68
2023-03-19T00:22:23.173Z,1004.69
2023-03-19T00:23:23.194Z,1004.62
2023-03-19T00:24:23.171Z,1004.63
2023-03-19T00:25:23.167Z,1004.61
2023-03-19T00:26:23.149Z,1004.60
2023-03-19T00:27:23.173Z,1004.61
2023-03-19T00:28:23.137Z,1004.64
2023-03-19T00:29:23.135Z,1004.62
2023-03-19T00:30:23.125Z,1004.63
2023-03-19T00:31:23.116Z,1004.61
2023-03-19T00:32:23.114Z,1004.65
2023-03-19T00:33:23.118Z,1004.65
2023-03-19T00:34:23.112Z,1004.66
2023-03-19T00:35:23.086Z,1004.61
2023-03-19T00:36:23.089Z,1004.60
2023-03-19T00:37:23.087Z,1004.60
2023-03-19T00:38:23.078Z,1004.61
2023-03-19T00:39:23.069Z,1004.62
2023-03-19T00:40:23.073Z,1004.57
2023-03-19T00:41:23.069Z,1004.55
2023-03-19T00:42:23.063Z,1004.57
2023-03-19T00:43:23.044Z,1004.62
2023-03-19T00:44:23.046Z,1004.62
2023-03-19T00:45:23.037Z,1004.58
2023-03-19T00:46:23.066Z,1004.63
2023-03-19T00:47:23.031Z,1004.60
2023-03-19T00:48:23.031Z,1004.59
2023-03-19T00:49:23.078Z,1004.59
2023-03-19T00:50:23.021Z,1004.57
2023-03-19T00:51:23.032Z,1004.56
2023-03-19T00:52:23.015Z,1004.55
2023-03-19T00:53:23.001Z,1004.58
2023-03-19T00:54:22.997Z,1004.55
2023-03-19T00:55:23.043Z,1004.63
2023-03-19T00:56:22.992Z,1004.54
2023-03-19T00:57:23.010Z,1004.52
2023-03-19T00:58:22.964Z,1004.52
2023-03-19T00:59:22.980Z,1004.55
2023-03-19T01:00:22.951Z,1004.53
2023-03-19T01:01:23.107Z,1004.53
2023-03-19T01:02:22.946Z,1004.53
2023-03-19T01:03:22.929Z,1004.51
2023-03-19T01:04:23.015Z,1004.53
2023-03-19T01:05:22.931Z,1004.55
2023-03-19T01:06:22.956Z,1004.54
2023-03-19T01:07:22.931Z,1004.51
2023-03-19T01:08:22.927Z,1004.55
2023-03-19T01:09:22.899Z,1004.54
2023-03-19T01:10:22.894Z,1004.52
2023-03-19T01:11:22.908Z,1004.53
2023-03-19T01:12:22.889Z,1004.58
2023-03-19T01:13:22.890Z,1004.58
2023-03-19T01:14:22.889Z,1004.57
2023-03-19T01:15:22.906Z,1004.57
2023-03-19T01:16:22.899Z,1004.57
2023-03-19T01:17:22.859Z,1004.54
2023-03-19T01:18:22.856Z,1004.52
2023-03-19T01:19:22.846Z,1004.55
2023-03-19T01:20:22.839Z,1004.58
2023-03-19T01:21:22.846Z,1004.59
2023-03-19T01:22:22.818Z,1004.61
2023-03-19T01:23:22.814Z,1004.63
2023-03-19T01:24:22.828Z,1004.67
2023-03-19T01:25:22.800Z,1004.68
2023-03-19T01:26:22.796Z,1004.67
2023-03-19T01:27:22.810Z,1004.64
2023-03-19T01:28:22.783Z,1004.71
2023-03-19T01:29:22.777Z,1004.69
2023-03-19T01:30:22.770Z,1004.71
2023-03-19T01:31:22.803Z,1004.72
2023-03-19T01:32:22.772Z,1004.74
2023-03-19T01:33:25.561Z,1004.69
2023-03-19T01:34:22.746Z,1004.72
2023-03-19T01:35:22.749Z,1004.67
2023-03-19T01:36:22.740Z,1004.71
2023-03-19T01:37:22.737Z,1004.69
2023-03-19T01:38:22.724Z,1004.70
2023-03-19T01:39:22.730Z,1004.65
2023-03-19T01:40:22.710Z,1004.71
2023-03-19T01:41:22.731Z,1004.68
2023-03-19T01:42:22.721Z,1004.68
2023-03-19T01:43:22.700Z,1004.70
2023-03-19T01:44:22.688Z,1004.68
2023-03-19T01:45:22.687Z,1004.66
2023-03-19T01:46:22.727Z,1004.70
2023-03-19T01:47:22.666Z,1004.70
2023-03-19T01:48:22.678Z,1004.67
2023-03-19T01:49:22.666Z,1004.64
2023-03-19T01:50:22.664Z,1004.66
2023-03-19T01:51:22.666Z,1004.66
2023-03-19T01:52:22.642Z,1004.65
2023-03-19T01:53:22.673Z,1004.65
2023-03-19T01:54:22.654Z,1004.69
2023-03-19T01:55:22.628Z,1004.61
2023-03-19T01:56:22.632Z,1004.62
2023-03-19T01:57:22.616Z,1004.62
2023-03-19T01:58:24.948Z,1004.63
2023-03-19T01:59:22.604Z,1004.56
2023-03-19T02:00:22.607Z,1004.57
2023-03-19T02:01:22.637Z,1004.54
2023-03-19T02:02:22.586Z,1004.57
2023-03-19T02:03:22.611Z,1004.54
2023-03-19T02:04:22.623Z,1004.56
2023-03-19T02:05:22.574Z,1004.54
2023-03-19T02:06:22.575Z,1004.56
2023-03-19T02:07:22.561Z,1004.55
2023-03-19T02:08:22.548Z,1004.60
2023-03-19T02:09:22.539Z,1004.58
2023-03-19T02:10:22.542Z,1004.59
2023-03-19T02:11:22.537Z,1004.57
2023-03-19T02:12:22.565Z,1004.57
2023-03-19T02:13:22.565Z,1004.60
2023-03-19T02:14:22.521Z,1004.60
2023-03-19T02:15:22.545Z,1004.62
2023-03-19T02:16:22.621Z,1004.67
2023-03-19T02:17:22.492Z,1004.65
2023-03-19T02:18:22.505Z,1004.63
2023-03-19T02:19:22.504Z,1004.62
2023-03-19T02:20:22.485Z,1004.65
2023-03-19T02:21:22.470Z,1004.65
2023-03-19T02:22:22.467Z,1004.70
2023-03-19T02:23:22.474Z,1004.69
2023-03-19T02:24:22.467Z,1004.69
2023-03-19T02:25:22.453Z,1004.68
2023-03-19T02:26:22.462Z,1004.75
2023-03-19T02:27:22.455Z,1004.74
2023-03-19T02:28:22.436Z,1004.71
2023-03-19T02:29:22.445Z,1004.70
2023-03-19T02:30:22.439Z,1004.66
2023-03-19T02:31:22.476Z,1004.67
2023-03-19T02:32:22.433Z,1004.66
2023-03-19T02:33:22.401Z,1004.65
2023-03-19T02:34:22.387Z,1004.62
2023-03-19T02:35:22.391Z,1004.59
2023-03-19T02:36:22.380Z,1004.63
2023-03-19T02:37:22.378Z,1004.65
2023-03-19T02:38:22.498Z,1004.63
2023-03-19T02:39:22.369Z,1004.66
2023-03-19T02:40:22.364Z,1004.64
2023-03-19T02:41:22.352Z,1004.69
2023-03-19T02:42:22.348Z,1004.66
2023-03-19T02:43:22.345Z,1004.64
2023-03-19T02:44:22.331Z,1004.66
2023-03-19T02:45:22.325Z,1004.58
2023-03-19T02:46:22.361Z,1004.50
2023-03-19T02:47:22.319Z,1004.52
2023-03-19T02:48:22.313Z,1004.52
2023-03-19T02:49:22.300Z,1004.49
2023-03-19T02:50:22.299Z,1004.56
2023-03-19T02:51:22.313Z,1004.52
2023-03-19T02:52:22.306Z,1004.50
2023-03-19T02:53:22.282Z,1004.52
2023-03-19T02:54:22.267Z,1004.59
2023-03-19T02:55:22.278Z,1004.54
2023-03-19T02:56:22.265Z,1004.54
2023-03-19T02:57:22.264Z,1004.51
2023-03-19T02:58:22.252Z,1004.55
2023-03-19T02:59:22.252Z,1004.54
2023-03-19T03:00:22.245Z,1004.53
2023-03-19T03:01:22.274Z,1004.55
2023-03-19T03:02:22.293Z,1004.54
2023-03-19T03:03:22.233Z,1004.57
2023-03-19T03:04:22.230Z,1004.54
2023-03-19T03:05:22.235Z,1004.53
2023-03-19T03:06:22.208Z,1004.51
2023-03-19T03:07:22.207Z,1004.51
2023-03-19T03:08:22.222Z,1004.48
2023-03-19T03:09:22.189Z,1004.48
2023-03-19T03:10:22.201Z,1004.46
2023-03-19T03:11:22.186Z,1004.48
2023-03-19T03:12:22.177Z,1004.49
2023-03-19T03:13:22.171Z,1004.45
2023-03-19T03:14:22.170Z,1004.47
2023-03-19T03:15:22.176Z,1004.45
2023-03-19T03:16:22.260Z,1004.50
2023-03-19T03:17:22.168Z,1004.49
2023-03-19T03:18:22.152Z,1004.53
2023-03-19T03:19:22.136Z,1004.53
2023-03-19T03:20:22.135Z,1004.55
2023-03-19T03:21:22.139Z,1004.54
2023-03-19T03:22:22.108Z,1004.55
2023-03-19T03:23:22.157Z,1004.49
2023-03-19T03:24:22.102Z,1004.51
2023-03-19T03:25:22.091Z,1004.50
2023-03-19T03:26:22.097Z,1004.52
2023-03-19T03:27:22.102Z,1004.49
2023-03-19T03:28:22.078Z,1004.53
2023-03-19T03:29:22.077Z,1004.55
2023-03-19T03:30:22.064Z,1004.55
2023-03-19T03:31:22.108Z,1004.59
2023-03-19T03:32:22.059Z,1004.58
2023-03-19T03:33:22.055Z,1004.58
2023-03-19T03:34:22.043Z,1004.59
2023-03-19T03:35:22.128Z,1004.62
2023-03-19T03:36:22.034Z,1004.57
2023-03-19T03:37:22.029Z,1004.56
2023-03-19T03:38:22.024Z,1004.57
2023-03-19T03:39:22.009Z,1004.59
2023-03-19T03:40:22.010Z,1004.57
2023-03-19T03:41:22.007Z,1004.60
2023-03-19T03:42:22.000Z,1004.60
2023-03-19T03:43:21.990Z,1004.56
2023-03-19T03:44:21.983Z,1004.63
2023-03-19T03:45:21.989Z,1004.65
2023-03-19T03:46:21.982Z,1004.67
2023-03-19T03:47:21.969Z,1004.62
2023-03-19T03:48:22.006Z,1004.67
2023-03-19T03:49:21.951Z,1004.65
2023-03-19T03:50:21.946Z,1004.70
2023-03-19T03:51:21.934Z,1004.72
2023-03-19T03:52:21.932Z,1004.71
2023-03-19T03:53:21.945Z,1004.77
2023-03-19T03:54:21.934Z,1004.76
2023-03-19T03:55:21.918Z,1004.74
2023-03-19T03:56:21.948Z,1004.77
2023-03-19T03:57:21.928Z,1004.75
2023-03-19T03:58:21.909Z,1004.70
2023-03-19T03:59:21.899Z,1004.75
2023-03-19T04:00:21.888Z,1004.77
2023-03-19T04:01:21.907Z,1004.72
2023-03-19T04:02:21.932Z,1004.73
2023-03-19T04:03:21.898Z,1004.75
2023-03-19T04:04:21.879Z,1004.71
2023-03-19T04:05:21.860Z,1004.74
2023-03-19T04:06:21.852Z,1004.69
2023-03-19T04:07:21.851Z,1004.72
2023-03-19T04:08:21.854Z,1004.70
2023-03-19T04:09:21.832Z,1004.72
2023-03-19T04:10:21.831Z,1004.71
2023-03-19T04:11:21.841Z,1004.66
2023-03-19T04:12:21.820Z,1004.69
2023-03-19T04:13:21.826Z,1004.78
2023-03-19T04:14:21.815Z,1004.79
2023-03-19T04:15:21.799Z,1004.85
2023-03-19T04:16:21.810Z,1004.92
2023-03-19T04:17:21.787Z,1004.91
2023-03-19T04:18:21.788Z,1004.91
2023-03-19T04:19:21.768Z,1004.94
2023-03-19T04:20:21.761Z,1004.86
2023-03-19T04:21:21.757Z,1004.87
2023-03-19T04:22:21.761Z,1004.93
2023-03-19T04:23:21.753Z,1004.98
2023-03-19T04:24:21.754Z,1005.04
2023-03-19T04:25:21.739Z,1005.06
2023-03-19T04:26:21.725Z,1005.07
2023-03-19T04:27:21.721Z,1005.07
2023-03-19T04:28:21.714Z,1005.13
2023-03-19T04:29:21.728Z,1005.16
2023-03-19T04:30:21.727Z,1005.12
2023-03-19T04:31:21.804Z,1005.04
2023-03-19T04:32:21.695Z,1005.10
2023-03-19T04:33:21.684Z,1005.09
2023-03-19T04:34:21.689Z,1005.12
2023-03-19T04:35:21.697Z,1005.07
2023-03-19T04:36:21.667Z,1005.10
2023-03-19T04:37:21.666Z,1005.05
2023-03-19T04:38:21.655Z,1005.05
2023-03-19T04:39:21.647Z,1005.05
2023-03-19T04:40:21.657Z,1005.05
2023-03-19T04:41:21.654Z,1005.03
2023-03-19T04:42:21.647Z,1005.04
2023-03-19T04:43:21.627Z,1005.04
2023-03-19T04:44:21.627Z,1005.03
2023-03-19T04:45:21.624Z,1005.01
2023-03-19T04:46:21.628Z,1005.00
2023-03-19T04:47:21.611Z,1004.98
2023-03-19T04:48:21.592Z,1004.97
2023-03-19T04:49:21.589Z,1005.01
2023-03-19T04:50:21.602Z,1004.97
2023-03-19T04:51:21.576Z,1004.99
2023-03-19T04:52:21.611Z,1005.03
2023-03-19T04:53:21.564Z,1005.05
2023-03-19T04:54:21.566Z,1004.99
2023-03-19T04:55:21.560Z,1005.03
2023-03-19T04:56:21.615Z,1005.07
2023-03-19T04:57:21.540Z,1005.06
2023-03-19T04:58:21.553Z,1005.15
2023-03-19T04:59:23.056Z,1005.08
2023-03-19T05:00:21.533Z,1005.13
2023-03-19T05:01:21.561Z,1005.21
2023-03-19T05:02:21.515Z,1005.18
2023-03-19T05:03:21.508Z,1005.14
2023-03-19T05:04:21.502Z,1005.14
2023-03-19T05:05:21.519Z,1005.18
2023-03-19T05:06:21.494Z,1005.17
2023-03-19T05:07:21.489Z,1005.22
2023-03-19T05:08:21.472Z,1005.20
2023-03-19T05:09:21.493Z,1005.23
2023-03-19T05:10:21.461Z,1005.22
2023-03-19T05:11:21.466Z,1005.25
2023-03-19T05:12:21.456Z,1005.22
2023-03-19T05:13:21.801Z,1005.23
2023-03-19T05:14:21.461Z,1005.22
2023-03-19T05:15:21.442Z,1005.28
2023-03-19T05:16:21.436Z,1005.24
2023-03-19T05:17:21.416Z,1005.23
2023-03-19T05:18:21.419Z,1005.20
2023-03-19T05:19:21.408Z,1005.15
2023-03-19T05:20:21.395Z,1005.15
2023-03-19T05:21:21.533Z,1005.17
2023-03-19T05:22:21.390Z,1005.16
2023-03-19T05:23:21.396Z,1005.16
2023-03-19T05:24:21.372Z,1005.20
2023-03-19T05:25:21.365Z,1005.17
2023-03-19T05:26:21.363Z,1005.21
2023-03-19T05:27:21.381Z,1005.15
2023-03-19T05:28:21.345Z,1005.18
2023-03-19T05:29:21.369Z,1005.16
2023-03-19T05:30:21.337Z,1005.21
2023-03-19T05:31:21.367Z,1005.23
2023-03-19T05:32:21.321Z,1005.19
2023-03-19T05:33:21.319Z,1005.20
2023-03-19T05:34:21.369Z,1005.20
2023-03-19T05:35:21.341Z,1005.23
2023-03-19T05:36:21.325Z,1005.29
2023-03-19T05:37:21.294Z,1005.31
2023-03-19T05:38:21.305Z,1005.31
2023-03-19T05:39:21.299Z,1005.32
2023-03-19T05:40:21.274Z,1005.32
2023-03-19T05:41:21.275Z,1005.37
2023-03-19T05:42:21.264Z,1005.35
2023-03-19T05:43:21.266Z,1005.38
2023-03-19T05:44:21.259Z,1005.42
2023-03-19T05:45:21.258Z,1005.41
2023-03-19T05:46:21.283Z,1005.35
2023-03-19T05:47:21.235Z,1005.40
2023-03-19T05:48:21.256Z,1005.34
2023-03-19T05:49:21.222Z,1005.37
2023-03-19T05:50:21.210Z,1005.40
2023-03-19T05:51:21.213Z,1005.40
2023-03-19T05:52:21.205Z,1005.36
2023-03-19T05:53:21.204Z,1005.35
2023-03-19T05:54:21.237Z,1005.37
2023-03-19T05:55:21.182Z,1005.33
2023-03-19T05:56:21.187Z,1005.33
2023-03-19T05:57:21.191Z,1005.33
2023-03-19T05:58:21.173Z,1005.36
2023-03-19T05:59:21.172Z,1005.33
2023-03-19T06:00:21.163Z,1005.32
2023-03-19T06:01:21.271Z,1005.34
2023-03-19T06:02:21.236Z,1005.31
2023-03-19T06:03:21.146Z,1005.34
2023-03-19T06:04:21.174Z,1005.34
2023-03-19T06:05:21.126Z,1005.39
2023-03-19T06:06:21.143Z,1005.37
2023-03-19T06:07:21.106Z,1005.43
2023-03-19T06:08:21.107Z,1005.43
2023-03-19T06:09:21.108Z,1005.43
2023-03-19T06:10:21.113Z,1005.48
2023-03-19T06:11:21.089Z,1005.52
2023-03-19T06:12:21.095Z,1005.52
2023-03-19T06:13:21.087Z,1005.53
2023-03-19T06:14:21.071Z,1005.53
2023-03-19T06:15:21.077Z,1005.51
2023-03-19T06:16:21.171Z,1005.53
2023-03-19T06:17:21.066Z,1005.54
2023-03-19T06:18:21.107Z,1005.58
2023-03-19T06:19:21.034Z,1005.56
2023-03-19T06:20:21.022Z,1005.56
2023-03-19T06:21:21.028Z,1005.54
2023-03-19T06:22:21.011Z,1005.62
2023-03-19T06:23:21.018Z,1005.62
2023-03-19T06:24:21.022Z,1005.60
2023-03-19T06:25:21.007Z,1005.61
2023-03-19T06:26:20.986Z,1005.58
2023-03-19T06:27:21.012Z,1005.62
2023-03-19T06:28:20.989Z,1005.64
2023-03-19T06:29:20.981Z,1005.62
2023-03-19T06:30:21.011Z,1005.69
2023-03-19T06:31:20.998Z,1005.66
2023-03-19T06:32:20.961Z,1005.60
2023-03-19T06:33:20.956Z,1005.65
2023-03-19T06:34:20.967Z,1005.65
2023-03-19T06:35:20.962Z,1005.69
2023-03-19T06:36:20.943Z,1005.72
2023-03-19T06:37:20.928Z,1005.70
2023-03-19T06:38:20.931Z,1005.71
2023-03-19T06:39:20.916Z,1005.70
2023-03-19T06:40:20.905Z,1005.69
2023-03-19T06:41:20.907Z,1005.71
2023-03-19T06:42:20.950Z,1005.72
2023-03-19T06:43:20.897Z,1005.75
2023-03-19T06:44:20.898Z,1005.76
2023-03-19T06:45:20.885Z,1005.76
2023-03-19T06:46:20.939Z,1005.77
2023-03-19T06:47:20.872Z,1005.80
2023-03-19T06:48:20.867Z,1005.76
2023-03-19T06:49:20.896Z,1005.77
2023-03-19T06:50:20.876Z,1005.79
2023-03-19T06:51:20.907Z,1005.82
2023-03-19T06:52:20.843Z,1005.83
2023-03-19T06:53:20.835Z,1005.86
2023-03-19T06:54:20.849Z,1005.89
2023-03-19T06:55:20.839Z,1005.90
2023-03-19T06:56:20.813Z,1005.91
2023-03-19T06:57:20.819Z,1005.94
2023-03-19T06:58:20.807Z,1005.90
2023-03-19T06:59:20.796Z,1005.95
2023-03-19T07:00:20.802Z,1005.96
2023-03-19T07:01:20.817Z,1005.98
2023-03-19T07:02:20.793Z,1005.97
2023-03-19T07:03:20.777Z,1005.96
2023-03-19T07:04:20.874Z,1006.02
2023-03-19T07:05:20.774Z,1005.99
2023-03-19T07:06:20.771Z,1006.03
2023-03-19T07:07:20.762Z,1006.03
2023-03-19T07:08:20.752Z,1006.06
2023-03-19T07:09:20.749Z,1006.10
2023-03-19T07:10:20.747Z,1006.12
2023-03-19T07:11:20.730Z,1006.12
2023-03-19T07:12:20.752Z,1006.15
2023-03-19T07:13:20.728Z,1006.15
2023-03-19T07:14:20.707Z,1006.22
2023-03-19T07:15:20.705Z,1006.23
2023-03-19T07:16:20.727Z,1006.23
2023-03-19T07:17:20.706Z,1006.21
2023-03-19T07:18:20.689Z,1006.20
2023-03-19T07:19:20.716Z,1006.20
2023-03-19T07:20:20.694Z,1006.22
2023-03-19T07:21:20.680Z,1006.21
2023-03-19T07:22:20.672Z,1006.21
2023-03-19T07:23:20.655Z,1006.21
2023-03-19T07:24:20.673Z,1006.20
2023-03-19T07:25:20.654Z,1006.23
2023-03-19T07:26:20.644Z,1006.24
2023-03-19T07:27:20.655Z,1006.30
2023-03-19T07:28:20.677Z,1006.25
2023-03-19T07:29:20.750Z,1006.31
2023-03-19T07:30:20.623Z,1006.32
2023-03-19T07:31:20.630Z,1006.27
2023-03-19T07:32:20.620Z,1006.27
2023-03-19T07:33:20.608Z,1006.33
2023-03-19T07:34:20.596Z,1006.39
2023-03-19T07:35:20.592Z,1006.32
2023-03-19T07:36:20.580Z,1006.34
2023-03-19T07:37:22.463Z,1006.36
2023-03-19T07:38:20.583Z,1006.38
2023-03-19T07:39:20.573Z,1006.34
2023-03-19T07:40:20.560Z,1006.37
2023-03-19T07:41:20.560Z,1006.34
2023-03-19T07:42:20.553Z,1006.33
2023-03-19T07:43:20.545Z,1006.34
2023-03-19T07:44:20.545Z,1006.30
2023-03-19T07:45:20.545Z,1006.35
2023-03-19T07:46:20.538Z,1006.34
2023-03-19T07:47:28.883Z,1006.35
2023-03-19T07:48:20.510Z,1006.32
2023-03-19T07:49:20.522Z,1006.33
2023-03-19T07:50:20.521Z,1006.36
2023-03-19T07:51:20.500Z,1006.34
2023-03-19T07:52:20.499Z,1006.33
2023-03-19T07:53:20.496Z,1006.34
2023-03-19T07:54:20.492Z,1006.37
2023-03-19T07:55:20.483Z,1006.35
2023-03-19T07:56:20.485Z,1006.36
2023-03-19T07:57:20.466Z,1006.38
2023-03-19T07:58:20.568Z,1006.38
2023-03-19T07:59:20.457Z,1006.37
2023-03-19T08:00:20.457Z,1006.39
2023-03-19T08:01:20.476Z,1006.39
2023-03-19T08:02:22.902Z,1006.39
2023-03-19T08:03:20.434Z,1006.36
2023-03-19T08:04:20.443Z,1006.39
2023-03-19T08:05:20.442Z,1006.38
2023-03-19T08:06:20.454Z,1006.38
2023-03-19T08:07:20.426Z,1006.34
2023-03-19T08:08:20.433Z,1006.37
2023-03-19T08:09:20.399Z,1006.39
2023-03-19T08:10:20.439Z,1006.39
2023-03-19T08:11:20.388Z,1006.42
2023-03-19T08:12:20.446Z,1006.40
2023-03-19T08:13:20.459Z,1006.40
2023-03-19T08:14:20.389Z,1006.43
2023-03-19T08:15:20.554Z,1006.43
2023-03-19T08:16:20.376Z,1006.41
2023-03-19T08:17:20.369Z,1006.42
2023-03-19T08:18:20.375Z,1006.40
2023-03-19T08:19:20.371Z,1006.43
2023-03-19T08:20:20.336Z,1006.43
2023-03-19T08:21:20.340Z,1006.42
2023-03-19T08:22:20.345Z,1006.39
2023-03-19T08:23:20.325Z,1006.43
2023-03-19T08:24:20.353Z,1006.43
2023-03-19T08:25:20.311Z,1006.45
2023-03-19T08:26:20.306Z,1006.44
2023-03-19T08:27:20.299Z,1006.44
2023-03-19T08:28:20.316Z,1006.43
2023-03-19T08:29:20.290Z,1006.44
2023-03-19T08:30:20.291Z,1006.40
2023-03-19T08:31:20.309Z,1006.45
2023-03-19T08:32:20.286Z,1006.41
2023-03-19T08:33:20.279Z,1006.43
2023-03-19T08:34:20.321Z,1006.44
2023-03-19T08:35:20.300Z,1006.47
2023-03-19T08:36:20.265Z,1006.44
2023-03-19T08:37:20.250Z,1006.46
2023-03-19T08:38:20.254Z,1006.48
2023-03-19T08:39:20.232Z,1006.49
2023-03-19T08:40:20.232Z,1006.48
2023-03-19T08:41:20.244Z,1006.48
2023-03-19T08:42:20.213Z,1006.52
2023-03-19T08:43:20.221Z,1006.54
2023-03-19T08:44:20.215Z,1006.54
2023-03-19T08:45:20.269Z,1006.53
2023-03-19T08:46:20.229Z,1006.56
2023-03-19T08:47:20.227Z,1006.56
2023-03-19T08:48:20.216Z,1006.58
2023-03-19T08:49:20.185Z,1006.58
2023-03-19T08:50:20.194Z,1006.64
2023-03-19T08:51:20.250Z,1006.65
2023-03-19T08:52:20.167Z,1006.62
2023-03-19T08:53:20.160Z,1006.68
2023-03-19T08:54:22.747Z,1006.68
2023-03-19T08:55:20.150Z,1006.68
2023-03-19T08:56:20.146Z,1006.71
2023-03-19T08:57:20.133Z,1006.70
2023-03-19T08:58:20.138Z,1006.69
2023-03-19T08:59:20.129Z,1006.71
2023-03-19T09:00:20.120Z,1006.70
2023-03-19T09:01:20.141Z,1006.72
2023-03-19T09:02:20.119Z,1006.66
2023-03-19T09:03:20.099Z,1006.69
2023-03-19T09:04:20.110Z,1006.72
2023-03-19T09:05:20.092Z,1006.68
2023-03-19T09:06:20.094Z,1006.74
2023-03-19T09:07:20.135Z,1006.72
2023-03-19T09:08:20.090Z,1006.74
2023-03-19T09:09:20.089Z,1006.73
2023-03-19T09:10:20.092Z,1006.72
2023-03-19T09:11:20.161Z,1006.73
2023-03-19T09:12:20.069Z,1006.72
2023-03-19T09:13:20.050Z,1006.75
2023-03-19T09:14:20.077Z,1006.77
2023-03-19T09:15:20.051Z,1006.76
2023-03-19T09:16:20.092Z,1006.78
2023-03-19T09:17:20.024Z,1006.79
2023-03-19T09:18:20.024Z,1006.75
2023-03-19T09:19:20.015Z,1006.77
2023-03-19T09:20:20.016Z,1006.78
2023-03-19T09:21:20.005Z,1006.82
2023-03-19T09:22:20.000Z,1006.79
2023-03-19T09:23:19.997Z,1006.83
2023-03-19T09:24:19.985Z,1006.84
2023-03-19T09:25:19.982Z,1006.87
2023-03-19T09:26:19.970Z,1006.88
2023-03-19T09:27:20.009Z,1006.82
2023-03-19T09:28:19.960Z,1006.86
2023-03-19T09:29:19.957Z,1006.83
2023-03-19T09:30:19.957Z,1006.82
2023-03-19T09:31:20.032Z,1006.81
2023-03-19T09:32:19.956Z,1006.81
2023-03-19T09:33:19.937Z,1006.79
2023-03-19T09:34:19.926Z,1006.82
2023-03-19T09:35:19.928Z,1006.83
2023-03-19T09:36:19.940Z,1006.86
2023-03-19T09:37:19.911Z,1006.81
2023-03-19T09:38:19.914Z,1006.83
2023-03-19T09:39:19.897Z,1006.87
2023-03-19T09:40:21.624Z,1006.86
2023-03-19T09:41:19.894Z,1006.90
2023-03-19T09:42:19.894Z,1006.90
2023-03-19T09:43:19.891Z,1006.93
2023-03-19T09:44:19.877Z,1006.91
2023-03-19T09:45:19.875Z,1006.96
2023-03-19T09:46:22.502Z,1006.92
2023-03-19T09:47:19.857Z,1006.95
2023-03-19T09:48:19.853Z,1006.97
2023-03-19T09:49:19.859Z,1007.03
2023-03-19T09:50:19.845Z,1007.02
2023-03-19T09:51:19.840Z,1006.98
2023-03-19T09:52:19.827Z,1007.02
2023-03-19T09:53:19.831Z,1007.07
2023-03-19T09:54:19.832Z,1007.03
2023-03-19T09:55:19.824Z,1007.02
2023-03-19T09:56:19.808Z,1007.00
2023-03-19T09:57:19.818Z,1007.01
2023-03-19T09:58:19.808Z,1007.02
2023-03-19T09:59:19.796Z,1007.02
2023-03-19T10:00:19.791Z,1007.04
2023-03-19T10:01:19.814Z,1007.02
2023-03-19T10:02:19.778Z,1007.03
2023-03-19T10:03:19.781Z,1007.02
2023-03-19T10:04:19.866Z,1007.02
2023-03-19T10:05:19.773Z,1007.04
2023-03-19T10:06:19.770Z,1007.03
2023-03-19T10:07:19.750Z,1007.03
2023-03-19T10:08:19.756Z,1007.05
2023-03-19T10:09:19.756Z,1006.98
2023-03-19T10:10:19.738Z,1007.00
2023-03-19T10:11:19.731Z,1007.03
2023-03-19T10:12:19.729Z,1007.04
2023-03-19T10:13:19.717Z,1007.04
2023-03-19T10:14:19.714Z,1007.09
2023-03-19T10:15:19.764Z,1007.08
2023-03-19T10:16:19.729Z,1007.07
2023-03-19T10:17:19.717Z,1007.12
2023-03-19T10:18:19.710Z,1007.12
2023-03-19T10:19:19.997Z,1007.11
2023-03-19T10:20:19.744Z,1007.10
2023-03-19T10:21:19.681Z,1007.14
2023-03-19T10:22:19.686Z,1007.14
2023-03-19T10:23:19.668Z,1007.11
2023-03-19T10:24:19.672Z,1007.10
2023-03-19T10:25:19.666Z,1007.12
2023-03-19T10:26:19.670Z,1007.14
2023-03-19T10:27:19.668Z,1007.10
2023-03-19T10:28:19.648Z,1007.10
2023-03-19T10:29:19.643Z,1007.11
2023-03-19T10:30:19.661Z,1007.12
2023-03-19T10:31:19.638Z,1007.14
2023-03-19T10:32:19.665Z,1007.17
2023-03-19T10:33:19.626Z,1007.15
2023-03-19T10:34:19.622Z,1007.17
2023-03-19T10:35:19.614Z,1007.11
2023-03-19T10:36:19.657Z,1007.10
2023-03-19T10:37:19.594Z,1007.08
2023-03-19T10:38:19.598Z,1007.08
2023-03-19T10:39:19.597Z,1007.10
2023-03-19T10:40:19.613Z,1007.07
2023-03-19T10:41:19.586Z,1007.05
2023-03-19T10:42:19.573Z,1007.09
2023-03-19T10:43:19.575Z,1007.08
2023-03-19T10:44:19.562Z,1007.09
2023-03-19T10:45:19.563Z,1007.11
2023-03-19T10:46:19.572Z,1007.10
2023-03-19T10:47:19.552Z,1007.07
2023-03-19T10:48:19.549Z,1007.09
2023-03-19T10:49:19.538Z,1007.07
2023-03-19T10:50:19.577Z,1007.11
2023-03-19T10:51:19.527Z,1007.12
2023-03-19T10:52:19.533Z,1007.13
2023-03-19T10:53:19.533Z,1007.15
2023-03-19T10:54:19.509Z,1007.12
2023-03-19T10:55:19.520Z,1007.14
2023-03-19T10:56:19.517Z,1007.12
2023-03-19T10:57:19.501Z,1007.17
2023-03-19T10:58:19.506Z,1007.13
2023-03-19T10:59:19.486Z,1007.16
2023-03-19T11:00:19.496Z,1007.12
2023-03-19T11:01:19.539Z,1007.14
2023-03-19T11:02:19.501Z,1007.19
2023-03-19T11:03:19.475Z,1007.18
2023-03-19T11:04:19.491Z,1007.15
2023-03-19T11:05:19.461Z,1007.18
2023-03-19T11:06:19.469Z,1007.14
2023-03-19T11:07:19.454Z,1007.15
2023-03-19T11:08:34.538Z,1007.16
2023-03-19T11:09:19.438Z,1007.16
2023-03-19T11:10:19.427Z,1007.16
2023-03-19T11:11:19.435Z,1007.14
2023-03-19T11:12:19.416Z,1007.17
2023-03-19T11:13:19.993Z,1007.19
2023-03-19T11:14:19.413Z,1007.16
2023-03-19T11:15:19.413Z,1007.19
2023-03-19T11:16:19.431Z,1007.16
2023-03-19T11:17:19.410Z,1007.16
2023-03-19T11:18:19.395Z,1007.12
2023-03-19T11:19:19.410Z,1007.12
2023-03-19T11:20:19.381Z,1007.13
2023-03-19T11:21:19.368Z,1007.17
2023-03-19T11:22:20.965Z,1007.17
2023-03-19T11:23:19.381Z,1007.19
2023-03-19T11:24:19.361Z,1007.20
2023-03-19T11:25:19.370Z,1007.24
2023-03-19T11:26:19.352Z,1007.21
2023-03-19T11:27:19.357Z,1007.23
2023-03-19T11:28:21.553Z,1007.21
2023-03-19T11:29:19.347Z,1007.17
2023-03-19T11:30:19.350Z,1007.20
2023-03-19T11:31:19.325Z,1007.15
2023-03-19T11:32:22.061Z,1007.17
2023-03-19T11:33:19.372Z,1007.17
2023-03-19T11:34:19.317Z,1007.16
2023-03-19T11:35:19.308Z,1007.17
2023-03-19T11:36:19.322Z,1007.17
2023-03-19T11:37:19.315Z,1007.16
2023-03-19T11:38:19.299Z,1007.17
2023-03-19T11:39:19.292Z,1007.17
2023-03-19T11:40:19.288Z,1007.15
2023-03-19T11:41:19.271Z,1007.17
2023-03-19T11:42:19.275Z,1007.15
2023-03-19T11:43:19.270Z,1007.18
2023-03-19T11:44:19.270Z,1007.13
2023-03-19T11:45:19.276Z,1007.12
2023-03-19T11:46:19.315Z,1007.11
2023-03-19T11:47:27.134Z,1007.13
2023-03-19T11:48:19.255Z,1007.12
2023-03-19T11:49:19.246Z,1007.12
2023-03-19T11:50:19.240Z,1007.12
2023-03-19T11:51:19.237Z,1007.07
2023-03-19T11:52:19.238Z,1007.12
2023-03-19T11:53:19.233Z,1007.03
2023-03-19T11:54:19.221Z,1007.02
2023-03-19T11:55:19.220Z,1007.00
2023-03-19T11:56:19.218Z,1007.02
2023-03-19T11:57:19.207Z,1007.01
2023-03-19T11:58:19.210Z,1007.05
2023-03-19T11:59:19.197Z,1007.02
2023-03-19T12:00:19.214Z,1007.03
2023-03-19T12:01:19.192Z,1007.00
2023-03-19T12:02:19.213Z,1007.05
2023-03-19T12:03:19.230Z,1007.01
2023-03-19T12:04:19.184Z,1007.04
2023-03-19T12:05:19.178Z,1007.02